Time;durP1;ratioP1;P1;durP2;ratioP2;P2;SDS_P1;SDS_P2;PMS_P1;PMS_P2;Temp;Humidity;BMP_temperature;BMP_pressure;BME280_temperature;BME280_humidity;BME280_pressure;Samples;Min_cycle;Max_cycle;Signal;HPM_P1;HPM_P2
2022/08/31 00:07:05;;;;;;;3.50;1.10;;;;;;;16.50;56.48;101014.41;10076571;29;20068;-76
2022/08/31 00:12:08;;;;;;;2.35;1.15;;;;;;;16.45;56.44;101013.13;10097351;29;20088;-77
2022/08/31 00:17:13;;;;;;;2.75;1.38;;;;;;;16.44;56.17;101015.00;10095308;29;21154;-77
2022/08/31 00:22:16;;;;;;;0.75;0.70;;;;;;;16.38;56.20;101010.19;10096063;29;20243;-76
2022/08/31 00:27:20;;;;;;;0.95;0.90;;;;;;;16.32;56.75;101017.03;10096149;29;20127;-77
2022/08/31 00:32:24;;;;;;;1.00;0.90;;;;;;;16.21;57.58;101025.31;10084933;29;20124;-78
2022/08/31 00:37:30;;;;;;;1.90;0.98;;;;;;;16.08;57.88;101011.22;10071762;29;20068;-76
2022/08/31 00:42:33;;;;;;;2.75;0.93;;;;;;;16.02;57.49;101020.78;10059425;29;20064;-77
2022/08/31 00:47:38;;;;;;;1.90;1.63;;;;;;;15.89;57.39;101014.78;10087307;29;20121;-76
2022/08/31 00:52:44;;;;;;;2.33;0.98;;;;;;;15.79;57.42;101016.66;10058454;29;20132;-77
2022/08/31 00:57:51;;;;;;;1.67;0.80;;;;;;;15.71;57.33;101006.53;10059469;29;20048;-77
2022/08/31 01:02:57;;;;;;;1.58;1.05;;;;;;;15.67;56.94;101008.66;10075231;29;20053;-77
2022/08/31 01:08:01;;;;;;;1.23;1.00;;;;;;;15.63;56.70;101015.38;10102970;29;20152;-78
2022/08/31 01:13:04;;;;;;;1.20;1.10;;;;;;;15.63;56.97;101018.09;10041450;29;20414;-76
2022/08/31 01:18:09;;;;;;;1.40;0.93;;;;;;;15.57;56.81;101015.91;10048118;29;20798;-77
2022/08/31 01:23:20;;;;;;;2.08;1.10;;;;;;;15.56;56.39;101013.38;10076981;29;20053;-76
2022/08/31 01:28:23;;;;;;;0.95;0.80;;;;;;;15.54;56.26;101010.78;10089194;29;20148;-78
2022/08/31 01:33:26;;;;;;;1.23;0.90;;;;;;;15.46;56.29;101011.50;10117465;29;20225;-76
2022/08/31 01:38:31;;;;;;;1.73;1.27;;;;;;;15.49;56.08;101013.06;10104922;29;20068;-77
2022/08/31 01:43:35;;;;;;;4.13;0.90;;;;;;;15.49;56.31;101010.34;10089299;29;20752;-77
2022/08/31 01:48:40;;;;;;;1.80;1.00;;;;;;;15.36;56.32;101013.34;10087308;29;20049;-76
2022/08/31 01:53:47;;;;;;;1.13;0.80;;;;;;;15.33;56.93;101021.72;10095834;29;20128;-77
2022/08/31 01:58:50;;;;;;;0.85;0.80;;;;;;;15.30;57.08;101023.84;10097875;29;20535;-77
2022/08/31 02:04:14;;;;;;;3.72;1.02;;;;;;;15.26;56.86;101018.72;10064198;29;21226;-78
2022/08/31 02:09:19;;;;;;;2.45;0.88;;;;;;;15.20;56.77;101021.13;10087298;29;20716;-78
2022/08/31 02:14:22;;;;;;;2.67;0.95;;;;;;;15.14;57.34;101025.25;10063382;29;20045;-78
2022/08/31 02:19:25;;;;;;;1.17;0.80;;;;;;;15.10;57.57;101021.09;10097432;29;20045;-78
2022/08/31 02:24:32;;;;;;;1.45;0.80;;;;;;;15.06;57.38;101025.09;10063158;29;20048;-77
2022/08/31 02:29:35;;;;;;;2.28;0.90;;;;;;;14.95;57.56;101012.53;10060107;29;20061;-77
2022/08/31 02:34:39;;;;;;;1.00;0.90;;;;;;;14.94;57.31;101013.50;10063022;29;20048;-76
2022/08/31 02:39:45;;;;;;;1.67;0.90;;;;;;;14.92;57.33;101028.16;10075782;29;20060;-76
2022/08/31 02:44:50;;;;;;;3.60;0.82;;;;;;;14.91;57.63;101015.63;10082576;29;20519;-78
2022/08/31 02:49:53;;;;;;;3.40;1.00;;;;;;;14.88;57.95;101021.31;10076776;29;20056;-77
2022/08/31 02:54:57;;;;;;;1.77;1.00;;;;;;;14.79;58.21;101026.56;10078265;29;20073;-77
2022/08/31 03:00:00;;;;;;;1.38;1.08;;;;;;;14.82;58.15;101020.88;10082973;29;20045;-80
2022/08/31 03:05:06;;;;;;;2.28;1.92;;;;;;;14.73;58.35;101019.00;10090786;29;20192;-78
2022/08/31 03:10:13;;;;;;;2.00;1.17;;;;;;;14.73;58.53;101015.44;10095746;29;20063;-77
2022/08/31 03:15:20;;;;;;;1.40;1.02;;;;;;;14.68;58.76;101013.13;10094145;29;20049;-76
2022/08/31 03:20:25;;;;;;;1.42;0.88;;;;;;;14.58;58.88;101020.34;10083777;29;20053;-78
2022/08/31 03:25:29;;;;;;;3.00;0.75;;;;;;;14.58;59.08;101007.66;10072354;29;20064;-76
2022/08/31 03:30:33;;;;;;;1.33;0.82;;;;;;;14.47;59.40;101010.47;10096478;29;20052;-76
2022/08/31 03:35:43;;;;;;;1.80;0.75;;;;;;;14.33;59.33;101006.22;10064788;29;20053;-77
2022/08/31 03:40:49;;;;;;;1.77;1.08;;;;;;;14.41;59.15;101011.00;10113406;29;20044;-76
2022/08/31 03:45:54;;;;;;;1.58;1.20;;;;;;;14.45;58.76;101007.03;10100492;29;20053;-77
2022/08/31 03:50:57;;;;;;;0.90;0.90;;;;;;;14.41;58.75;101018.25;10043781;29;20046;-76
2022/08/31 03:56:08;;;;;;;2.22;0.70;;;;;;;14.34;59.13;101017.88;10066003;29;21240;-76
2022/08/31 04:01:16;;;;;;;1.20;0.80;;;;;;;14.43;59.03;101027.09;10057666;29;20105;-77
2022/08/31 04:06:39;;;;;;;2.53;1.27;;;;;;;14.41;59.08;101027.22;10073418;29;20045;-76
2022/08/31 04:12:02;;;;;;;0.82;0.80;;;;;;;14.45;58.67;101034.06;10084766;29;20049;-77
2022/08/31 04:17:23;;;;;;;;;;;;;;;14.44;59.01;101032.34;10062720;29;20053;-76
2022/08/31 04:22:34;;;;;;;1.35;1.08;;;;;;;14.35;58.86;101041.25;10064991;29;21471;-76
2022/08/31 04:27:57;;;;;;;0.70;0.70;;;;;;;14.32;58.99;101039.66;10097496;29;21633;-78
2022/08/31 04:33:01;;;;;;;0.77;0.75;;;;;;;14.26;59.13;101032.09;10086906;29;20048;-78
2022/08/31 04:38:04;;;;;;;1.25;1.00;;;;;;;14.24;59.40;101038.63;10061927;29;20511;-78
2022/08/31 04:43:09;;;;;;;1.10;0.80;;;;;;;14.15;59.70;101041.13;10070891;29;20371;-78
2022/08/31 04:48:12;;;;;;;1.20;0.65;;;;;;;14.15;60.21;101056.44;10065539;29;20056;-77
2022/08/31 04:53:16;;;;;;;1.50;0.90;;;;;;;14.13;60.17;101051.19;10091230;29;20061;-78
2022/08/31 04:58:22;;;;;;;3.05;1.00;;;;;;;14.19;60.23;101047.09;10056246;29;20060;-78
2022/08/31 05:03:26;;;;;;;2.17;1.00;;;;;;;14.28;60.11;101054.41;10075449;29;20060;-76
2022/08/31 05:08:30;;;;;;;1.52;0.88;;;;;;;14.30;60.35;101059.69;10110063;29;20076;-77
2022/08/31 05:13:36;;;;;;;2.00;0.80;;;;;;;14.33;60.36;101062.13;10088046;29;20060;-79
2022/08/31 05:18:40;;;;;;;1.52;0.90;;;;;;;14.30;60.49;101070.50;10080064;29;20510;-76
2022/08/31 05:23:46;;;;;;;1.17;0.80;;;;;;;14.44;60.43;101072.06;10083616;29;20056;-76
2022/08/31 05:28:50;;;;;;;1.60;1.35;;;;;;;14.57;60.04;101076.25;10070164;29;20045;-77
2022/08/31 05:33:53;;;;;;;3.33;0.95;;;;;;;14.74;59.81;101072.06;10078075;29;20068;-76
2022/08/31 05:39:10;;;;;;;3.65;0.88;;;;;;;14.96;60.14;101064.78;10061668;29;20044;-77
2022/08/31 05:44:15;;;;;;;1.10;0.90;;;;;;;15.22;59.35;101076.84;10086229;29;21137;-77
2022/08/31 05:49:19;;;;;;;3.03;0.98;;;;;;;15.50;58.76;101081.63;10094455;29;20518;-77
2022/08/31 05:54:22;;;;;;;1.20;0.70;;;;;;;15.74;57.91;101078.50;10097934;29;20052;-76
2022/08/31 05:59:26;;;;;;;2.28;0.80;;;;;;;16.03;57.46;101092.09;10069455;29;20061;-77
2022/08/31 06:04:29;;;;;;;4.03;1.35;;;;;;;16.22;56.59;101078.50;10100207;29;20080;-76
2022/08/31 06:09:32;;;;;;;4.00;1.00;;;;;;;16.39;56.14;101097.78;10079697;29;20068;-77
2022/08/31 06:14:39;;;;;;;1.80;1.17;;;;;;;16.62;55.84;101099.19;10082817;29;20132;-77
2022/08/31 06:19:48;;;;;;;3.13;1.67;;;;;;;16.74;55.33;101099.84;10078603;29;20049;-77
2022/08/31 06:24:51;;;;;;;1.00;0.90;;;;;;;16.76;55.38;101108.72;10070387;29;20518;-77
2022/08/31 06:29:57;;;;;;;3.20;1.10;;;;;;;16.92;54.88;101099.91;10072261;29;20052;-76
2022/08/31 06:35:00;;;;;;;5.18;1.58;;;;;;;17.02;54.98;101101.59;10108847;29;20061;-76
2022/08/31 06:40:29;;;;;;;12.98;1.73;;;;;;;17.36;54.83;101101.06;10103983;29;21232;-76
2022/08/31 06:45:56;;;;;;;2.35;1.33;;;;;;;17.69;54.10;101102.28;10073485;29;20087;-77
2022/08/31 06:51:13;;;;;;;2.65;1.13;;;;;;;18.12;53.24;101105.25;10081501;29;20115;-77
2022/08/31 06:56:18;;;;;;;1.55;1.10;;;;;;;18.40;52.54;101111.44;10067400;29;20125;-77
2022/08/31 07:01:42;;;;;;;2.38;0.95;;;;;;;18.55;51.86;101114.44;10068678;29;20067;-77
2022/08/31 07:06:52;;;;;;;4.35;1.23;;;;;;;18.80;51.96;101113.63;10071701;29;20048;-76
2022/08/31 07:11:55;;;;;;;4.68;1.67;;;;;;;19.55;49.92;101112.94;10076144;29;20059;-76
2022/08/31 07:17:01;;;;;;;1.90;1.00;;;;;;;20.15;48.53;101109.16;10077359;29;20932;-75
2022/08/31 07:22:08;;;;;;;5.72;1.65;;;;;;;20.72;47.94;101117.34;10078620;29;20048;-77
2022/08/31 07:27:17;;;;;;;1.75;1.40;;;;;;;21.22;47.29;101109.88;10089459;29;20443;-77
2022/08/31 07:32:29;;;;;;;13.60;3.47;;;;;;;21.11;46.73;101116.59;10066963;29;20463;-77
2022/08/31 07:43:03;;;;;;;3.63;1.65;;;;;;;20.60;47.54;101116.00;10065361;29;20049;-78
2022/08/31 07:48:09;;;;;;;3.35;1.38;;;;;;;20.75;47.78;101124.34;10080632;29;20093;-77
2022/08/31 07:53:30;;;;;;;1.98;1.58;;;;;;;20.97;47.98;101115.41;10095491;29;20692;-77
2022/08/31 07:58:52;;;;;;;4.53;1.60;;;;;;;21.29;47.30;101126.44;10076632;29;20819;-77
2022/08/31 08:04:00;;;;;;;2.28;1.40;;;;;;;21.29;47.29;101134.63;10074773;29;20109;-77
2022/08/31 08:09:25;;;;;;;2.55;1.40;;;;;;;21.07;47.70;101136.25;10079532;29;20056;-77
2022/08/31 08:14:34;;;;;;;4.18;1.38;;;;;;;21.05;47.72;101139.16;10079761;29;20064;-77
2022/08/31 08:19:46;;;;;;;2.47;1.40;;;;;;;21.38;47.22;101130.84;10078088;29;20052;-76
2022/08/31 08:24:49;;;;;;;1.88;1.40;;;;;;;21.61;46.41;101128.16;10127394;29;20308;-77
2022/08/31 08:30:22;;;;;;;2.25;1.58;;;;;;;21.52;46.67;101130.06;10079525;29;20104;-78
2022/08/31 08:35:31;;;;;;;4.82;1.55;;;;;;;21.44;46.14;101144.63;10091634;29;20143;-77
2022/08/31 08:40:40;;;;;;;2.67;1.20;;;;;;;21.28;45.76;101133.75;10068934;29;20044;-76
2022/08/31 08:45:49;;;;;;;3.75;1.63;;;;;;;21.46;46.38;101139.00;10073564;29;20055;-76
2022/08/31 08:50:56;;;;;;;1.80;1.23;;;;;;;21.99;46.56;101137.34;10068551;29;20422;-76
2022/08/31 08:56:10;;;;;;;3.45;1.00;;;;;;;22.30;44.82;101140.03;10077949;29;20151;-76
2022/08/31 09:01:36;;;;;;;3.10;1.40;;;;;;;22.71;43.67;101141.59;10078467;29;20274;-76
2022/08/31 09:06:53;;;;;;;3.50;0.93;;;;;;;22.60;44.19;101140.16;10068798;29;20148;-76
2022/08/31 09:12:12;;;;;;;1.77;1.40;;;;;;;21.89;45.31;101145.81;10071560;29;20674;-75
2022/08/31 09:17:33;;;;;;;2.92;1.45;;;;;;;21.49;46.51;101138.63;10073855;29;20048;-76
2022/08/31 09:22:45;;;;;;;2.08;1.20;;;;;;;21.37;46.85;101145.53;10091229;29;20045;-76
2022/08/31 09:27:56;;;;;;;2.40;1.30;;;;;;;21.43;46.49;101142.94;10078400;29;20063;-76
2022/08/31 09:32:59;;;;;;;3.00;1.50;;;;;;;21.63;45.89;101145.22;10084484;29;21199;-76
2022/08/31 09:38:08;;;;;;;2.20;1.52;;;;;;;22.13;45.21;101141.19;10076848;29;20104;-76
2022/08/31 09:43:24;;;;;;;1.52;1.20;;;;;;;23.37;42.83;101133.53;10082887;29;20503;-76
2022/08/31 09:48:50;;;;;;;1.65;1.20;;;;;;;23.71;42.18;101129.28;10093983;29;20566;-76
2022/08/31 09:59:29;;;;;;;1.90;1.13;;;;;;;23.97;40.00;101128.75;10075654;29;20326;-76
2022/08/31 10:04:36;;;;;;;2.60;1.55;;;;;;;24.34;40.33;101129.56;10072311;29;20080;-77
2022/08/31 10:09:46;;;;;;;3.42;1.13;;;;;;;25.08;39.24;101129.94;10080378;29;20081;-77
2022/08/31 10:14:55;;;;;;;3.88;1.23;;;;;;;25.55;38.37;101124.69;10070203;29;20056;-76
2022/08/31 10:20:05;;;;;;;1.67;1.20;;;;;;;24.59;38.87;101121.75;10072875;29;20132;-77
2022/08/31 10:25:20;;;;;;;1.40;1.10;;;;;;;24.95;38.77;101122.44;10069700;29;20049;-77
2022/08/31 10:30:28;;;;;;;2.70;1.00;;;;;;;24.90;38.47;101118.59;10073828;29;20136;-77
2022/08/31 10:35:41;;;;;;;1.38;1.13;;;;;;;25.91;37.44;101112.53;10084301;29;20093;-77
2022/08/31 10:40:50;;;;;;;2.25;0.88;;;;;;;26.29;36.71;101107.31;10075290;29;20585;-77
2022/08/31 10:45:53;;;;;;;3.97;0.93;;;;;;;26.42;36.77;101112.00;10091463;29;20057;-77
2022/08/31 10:51:08;;;;;;;1.75;0.85;;;;;;;26.34;36.25;101113.06;10078424;29;20460;-79
2022/08/31 10:56:21;;;;;;;1.60;1.00;;;;;;;26.44;35.94;101119.00;10085503;29;20056;-78
2022/08/31 11:01:32;;;;;;;2.63;1.23;;;;;;;27.07;34.61;101103.84;10089355;29;20049;-78
2022/08/31 11:06:40;;;;;;;2.90;1.20;;;;;;;28.40;33.43;101109.53;10092923;29;20073;-78
2022/08/31 11:11:48;;;;;;;1.83;1.10;;;;;;;29.35;31.75;101103.72;10087607;29;20148;-78
2022/08/31 11:17:07;;;;;;;2.22;1.00;;;;;;;28.20;33.27;101109.72;10087321;29;20149;-78
2022/08/31 11:22:46;;;;;;;3.78;1.08;;;;;;;29.32;32.02;101106.94;10080959;29;20053;-78
2022/08/31 11:27:55;;;;;;;5.85;1.17;;;;;;;28.14;32.54;101104.22;10058970;29;20056;-78
2022/08/31 11:33:01;;;;;;;1.05;0.65;;;;;;;28.00;32.75;101106.22;10092612;29;20144;-78
2022/08/31 11:38:04;;;;;;;2.05;0.70;;;;;;;27.18;34.35;101105.97;10086042;29;20059;-78
2022/08/31 11:43:13;;;;;;;4.13;1.10;;;;;;;26.67;34.56;101109.44;10096458;29;20077;-77
2022/08/31 11:48:49;;;;;;;2.33;1.02;;;;;;;28.08;33.15;101086.63;10090593;29;20048;-78
2022/08/31 11:53:54;;;;;;;1.20;0.77;;;;;;;30.25;29.82;101091.81;10089041;29;20598;-77
2022/08/31 11:59:20;;;;;;;3.88;1.10;;;;;;;30.36;29.80;101079.06;10090365;29;20060;-78
2022/08/31 12:04:59;;;;;;;2.03;1.10;;;;;;;29.98;30.19;101076.69;10082299;29;20060;-78
2022/08/31 12:10:36;;;;;;;3.28;0.80;;;;;;;29.34;31.04;101079.88;10087692;29;20128;-77
2022/08/31 12:15:59;;;;;;;2.25;0.70;;;;;;;30.23;29.49;101076.50;10082853;29;20052;-79
2022/08/31 12:26:53;;;;;;;4.03;0.90;;;;;;;28.66;31.09;101071.69;10083080;29;20072;-78
2022/08/31 12:32:14;;;;;;;2.13;0.80;;;;;;;29.98;30.04;101071.16;10074558;29;20053;-78
2022/08/31 12:37:22;;;;;;;1.40;0.73;;;;;;;30.78;29.17;101067.88;10083400;29;20612;-78
2022/08/31 12:42:25;;;;;;;2.10;0.77;;;;;;;33.10;26.35;101046.72;10075142;29;20056;-79
2022/08/31 12:47:38;;;;;;;3.13;1.00;;;;;;;33.92;25.13;101045.72;10083832;29;20056;-78
2022/08/31 12:52:53;;;;;;;0.80;0.70;;;;;;;34.63;24.26;101042.66;10072318;29;20052;-79
2022/08/31 12:58:05;;;;;;;1.27;0.80;;;;;;;34.97;23.75;101039.50;10089379;29;20088;-79
2022/08/31 13:03:19;;;;;;;1.05;0.77;;;;;;;34.63;23.31;101036.25;10089174;29;20459;-78
2022/08/31 13:08:24;;;;;;;3.90;1.17;;;;;;;30.71;27.07;101044.97;10084585;29;20146;-78
2022/08/31 13:13:29;;;;;;;3.05;1.05;;;;;;;31.02;27.19;101029.84;10084329;29;20080;-78
2022/08/31 13:18:35;;;;;;;1.20;0.80;;;;;;;31.29;26.84;101037.63;10083714;29;20056;-78
2022/08/31 13:23:40;;;;;;;2.63;0.60;;;;;;;31.01;26.99;101022.59;10075760;29;20061;-77
2022/08/31 13:28:49;;;;;;;2.22;0.52;;;;;;;31.25;26.37;101017.00;10065898;29;20057;-77
2022/08/31 13:34:01;;;;;;;3.67;1.20;;;;;;;31.39;26.13;101009.22;10083638;29;20060;-78
2022/08/31 13:39:13;;;;;;;2.08;0.70;;;;;;;31.28;26.14;101011.81;10090357;29;20055;-79
2022/08/31 13:44:26;;;;;;;0.82;0.77;;;;;;;30.86;25.99;101003.72;10080609;29;20049;-78
2022/08/31 13:49:37;;;;;;;2.08;0.70;;;;;;;30.56;26.17;101005.78;10075202;29;20061;-76
2022/08/31 13:54:40;;;;;;;1.47;0.70;;;;;;;30.37;26.93;100996.78;10080268;29;20065;-79
2022/08/31 13:59:43;;;;;;;1.63;0.70;;;;;;;29.76;26.85;100996.94;10080174;29;20160;-79
2022/08/31 14:05:00;;;;;;;0.95;0.77;;;;;;;29.38;27.91;100995.34;10092229;29;20048;-78
2022/08/31 14:10:14;;;;;;;3.08;0.80;;;;;;;29.73;26.79;101000.19;10076591;29;20056;-78
2022/08/31 14:15:21;;;;;;;0.77;0.63;;;;;;;29.45;26.78;100989.69;10083580;29;20049;-77
2022/08/31 14:20:35;;;;;;;0.63;0.57;;;;;;;30.43;26.43;100981.94;10080431;29;20567;-79
2022/08/31 14:25:38;;;;;;;1.52;0.68;;;;;;;30.75;25.45;100978.78;10080988;29;20064;-79
2022/08/31 14:30:41;;;;;;;3.67;0.60;;;;;;;30.53;24.49;100971.09;10078913;29;20136;-78
2022/08/31 14:35:46;;;;;;;1.13;0.70;;;;;;;30.97;25.31;100970.66;10089137;29;20045;-79
2022/08/31 14:40:49;;;;;;;3.05;1.20;;;;;;;30.72;25.41;100970.94;10094578;29;20104;-79
2022/08/31 14:45:53;;;;;;;3.75;1.00;;;;;;;30.44;24.66;100958.66;10068412;29;20102;-78
2022/08/31 14:50:57;;;;;;;1.15;0.80;;;;;;;29.69;25.48;100957.44;10079337;29;20157;-76
2022/08/31 14:56:00;;;;;;;1.77;0.80;;;;;;;30.07;25.46;100952.53;10113548;29;20045;-76
2022/08/31 15:01:05;;;;;;;2.97;0.85;;;;;;;30.08;25.19;100957.81;10090025;29;20067;-76
2022/08/31 15:06:09;;;;;;;1.70;0.73;;;;;;;30.28;25.11;100959.41;10077058;29;20093;-77
2022/08/31 15:11:13;;;;;;;2.80;0.73;;;;;;;30.15;25.32;100950.28;10088022;29;20049;-76
2022/08/31 15:16:15;;;;;;;2.67;0.80;;;;;;;30.00;25.19;100947.09;10072901;29;20105;-78
2022/08/31 15:21:21;;;;;;;6.40;0.85;;;;;;;30.52;24.15;100936.13;10075721;29;20053;-76
2022/08/31 15:26:24;;;;;;;1.90;0.70;;;;;;;31.24;23.71;100935.72;10079390;29;20099;-78
2022/08/31 15:31:27;;;;;;;1.95;0.50;;;;;;;31.62;23.83;100933.28;10080034;29;20056;-78
2022/08/31 15:36:31;;;;;;;1.90;0.88;;;;;;;31.64;23.86;100928.34;10072761;29;20060;-78
2022/08/31 15:41:36;;;;;;;3.80;2.00;;;;;;;31.32;22.78;100926.09;10076847;29;20115;-78
2022/08/31 15:52:05;;;;;;;2.30;1.00;;;;;;;29.30;25.91;100917.38;10075141;29;20048;-78
2022/08/31 15:57:10;;;;;;;1.05;0.68;;;;;;;28.52;25.48;100918.16;10067672;29;20060;-77
2022/08/31 16:02:14;;;;;;;2.72;0.55;;;;;;;28.43;25.83;100914.84;10077944;29;20055;-78
2022/08/31 16:07:21;;;;;;;2.97;0.80;;;;;;;28.47;25.84;100913.34;10070250;29;20072;-77
2022/08/31 16:12:26;;;;;;;1.67;0.80;;;;;;;28.59;26.13;100910.66;10073318;29;20064;-78
2022/08/31 16:17:29;;;;;;;2.88;0.60;;;;;;;28.66;26.02;100905.88;10080134;29;20068;-77
2022/08/31 16:22:33;;;;;;;1.83;0.60;;;;;;;28.23;26.20;100906.78;10082240;29;20063;-77
2022/08/31 16:27:36;;;;;;;2.70;0.65;;;;;;;28.01;26.38;100901.69;10080654;29;20056;-76
2022/08/31 16:32:39;;;;;;;1.55;1.45;;;;;;;27.68;26.55;100904.75;10082354;29;20060;-76
2022/08/31 16:37:44;;;;;;;1.27;0.70;;;;;;;27.51;26.37;100898.09;10071828;29;20131;-75
2022/08/31 16:42:47;;;;;;;1.05;0.90;;;;;;;27.09;26.63;100903.22;10072304;29;20523;-76
2022/08/31 16:49:32;;;;;;;1.02;0.70;;;;;;;26.80;26.70;100907.41;10068599;29;20150;-76
2022/08/31 16:53:16;;;;;;;2.50;0.70;;;;;;;26.53;26.75;100904.75;10069030;29;21217;-76
2022/08/31 16:58:23;;;;;;;1.67;1.33;;;;;;;26.33;26.53;100898.47;10075653;29;20551;-76
2022/08/31 17:03:48;;;;;;;2.13;0.80;;;;;;;26.11;27.15;100908.84;10072258;29;20049;-77
2022/08/31 17:08:56;;;;;;;2.47;0.73;;;;;;;25.83;27.03;100910.78;10068413;29;20169;-76
2022/08/31 17:14:01;;;;;;;3.38;1.08;;;;;;;25.48;27.49;100901.91;10079044;29;20048;-76
2022/08/31 17:19:09;;;;;;;1.50;0.95;;;;;;;25.18;27.43;100895.94;10070884;29;20044;-76
2022/08/31 17:24:14;;;;;;;2.90;1.00;;;;;;;24.77;27.57;100905.09;10072997;29;20076;-77
2022/08/31 17:29:18;;;;;;;3.42;1.10;;;;;;;24.52;28.13;100907.53;10065251;29;20053;-76
2022/08/31 17:34:26;;;;;;;2.25;0.65;;;;;;;24.09;28.25;100914.00;10063824;29;20136;-75
2022/08/31 17:39:31;;;;;;;0.80;0.60;;;;;;;23.65;29.27;100915.13;10105678;29;20049;-75
2022/08/31 17:44:35;;;;;;;2.17;1.00;;;;;;;23.29;29.94;100920.69;10078714;29;21313;-76
2022/08/31 17:49:38;;;;;;;2.70;0.93;;;;;;;22.92;30.49;100921.72;10077946;29;20739;-75
2022/08/31 17:54:51;;;;;;;1.50;0.90;;;;;;;22.43;31.29;100931.41;10071565;29;20115;-76
2022/08/31 17:59:54;;;;;;;1.55;0.77;;;;;;;22.09;31.69;100938.25;10079153;29;20059;-76
2022/08/31 18:04:57;;;;;;;1.38;0.80;;;;;;;21.83;32.21;100935.09;10080107;29;20067;-76
2022/08/31 18:10:02;;;;;;;4.05;0.82;;;;;;;21.55;32.56;100943.84;10086818;29;20081;-75
2022/08/31 18:15:05;;;;;;;2.35;0.88;;;;;;;21.33;33.21;100950.16;10073688;29;20128;-76
2022/08/31 18:20:11;;;;;;;3.65;0.80;;;;;;;21.16;33.45;100954.88;10072886;29;20144;-76
2022/08/31 18:25:15;;;;;;;2.55;0.85;;;;;;;20.97;33.77;100948.81;10071489;29;20056;-76
2022/08/31 18:30:18;;;;;;;1.17;1.08;;;;;;;20.86;34.34;100962.88;10080539;29;20203;-76
2022/08/31 18:35:23;;;;;;;3.03;1.00;;;;;;;20.73;34.67;100965.31;10072685;29;20546;-77
2022/08/31 18:45:49;;;;;;;1.47;0.97;;;;;;;20.50;35.44;100973.44;10059099;29;20044;-78
2022/08/31 18:50:57;;;;;;;4.88;1.05;;;;;;;20.22;36.83;100971.09;10101523;29;20859;-77
2022/08/31 18:56:08;;;;;;;2.05;0.80;;;;;;;20.04;37.51;100979.44;10092431;29;20599;-78
2022/08/31 19:01:14;;;;;;;2.60;1.00;;;;;;;19.86;37.66;100981.53;10072823;29;20052;-77
2022/08/31 19:06:19;;;;;;;1.20;0.80;;;;;;;19.71;37.82;100983.22;10074935;29;20056;-77
2022/08/31 19:11:23;;;;;;;1.40;0.80;;;;;;;19.58;38.27;100986.44;10067836;29;20129;-77
2022/08/31 19:16:28;;;;;;;3.25;1.00;;;;;;;19.49;37.80;100987.44;10063900;29;20183;-77
2022/08/31 19:21:34;;;;;;;1.73;0.60;;;;;;;19.44;37.42;100980.63;10057787;29;20056;-78
2022/08/31 19:26:41;;;;;;;1.88;1.05;;;;;;;19.38;37.95;100991.31;10075323;29;21364;-78
2022/08/31 19:31:46;;;;;;;1.80;0.82;;;;;;;19.30;38.17;100986.69;10102144;29;20072;-79
2022/08/31 19:36:50;;;;;;;3.65;1.05;;;;;;;19.28;38.50;100990.63;10100959;29;20057;-78
2022/08/31 19:42:02;;;;;;;1.52;0.88;;;;;;;19.22;38.42;100990.25;10041176;29;20083;-78
2022/08/31 19:47:06;;;;;;;1.65;0.90;;;;;;;19.17;38.30;100999.94;10021746;29;20099;-78
2022/08/31 19:52:09;;;;;;;5.53;1.45;;;;;;;19.00;38.37;100986.28;10098230;29;20052;-78
2022/08/31 19:57:15;;;;;;;1.40;1.05;;;;;;;18.84;38.89;100990.81;10088222;29;20057;-78
2022/08/31 20:02:17;;;;;;;3.38;1.45;;;;;;;18.77;39.09;100996.88;10059739;29;20538;-78
2022/08/31 20:07:22;;;;;;;2.83;0.98;;;;;;;18.71;39.43;100997.53;10030970;29;20057;-78
2022/08/31 20:12:29;;;;;;;3.40;0.90;;;;;;;18.62;39.78;100998.50;10043088;29;20049;-78
2022/08/31 20:17:32;;;;;;;2.30;0.80;;;;;;;18.67;39.98;101003.47;10077308;29;20092;-77
2022/08/31 20:22:37;;;;;;;1.58;0.82;;;;;;;18.58;39.92;100999.84;10155682;29;20049;-78
2022/08/31 20:27:41;;;;;;;0.77;0.73;;;;;;;18.47;40.23;101011.03;10082147;29;20688;-78
2022/08/31 20:32:44;;;;;;;2.03;0.80;;;;;;;18.38;41.01;101009.28;10080295;29;20071;-78
2022/08/31 20:37:47;;;;;;;1.65;0.90;;;;;;;18.20;41.60;101007.44;10063553;29;20057;-79
2022/08/31 20:42:53;;;;;;;1.55;0.90;;;;;;;18.07;42.22;100996.13;10100880;29;20089;-79
2022/08/31 20:53:20;;;;;;;2.85;1.10;;;;;;;17.90;42.46;101014.13;10043110;29;20067;-79
2022/08/31 20:58:45;;;;;;;;;;;;;;;17.77;42.83;101017.28;10084713;29;20194;-77
2022/08/31 21:03:48;;;;;;;2.03;0.80;;;;;;;17.71;43.15;101017.88;10083095;29;20014;-78
2022/08/31 21:08:51;;;;;;;1.08;0.70;;;;;;;17.68;43.51;101012.75;10100673;29;20434;-79
2022/08/31 21:13:59;;;;;;;2.13;0.98;;;;;;;17.58;43.77;101011.97;10087144;29;20087;-78
2022/08/31 21:19:03;;;;;;;2.30;0.90;;;;;;;17.38;nan;101016.69;10063308;29;20144;-78
2022/08/31 21:24:08;;;;;;;3.53;0.90;;;;;;;17.38;44.39;101019.41;10098147;29;20061;-78
2022/08/31 21:29:14;;;;;;;1.83;0.80;;;;;;;17.33;44.27;101014.44;10099023;29;20088;-77
2022/08/31 21:34:18;;;;;;;2.03;0.80;;;;;;;17.28;44.41;101016.78;10070932;29;20072;-79
2022/08/31 21:39:23;;;;;;;1.65;0.73;;;;;;;17.12;45.17;101014.69;10091545;29;20057;-79
2022/08/31 21:44:28;;;;;;;3.17;0.90;;;;;;;17.00;45.21;101024.03;10069321;29;20093;-78
2022/08/31 21:49:32;;;;;;;0.80;0.65;;;;;;;16.92;45.69;101022.09;10100092;29;20150;-78
2022/08/31 21:54:36;;;;;;;2.60;0.70;;;;;;;16.93;46.09;101018.38;10082514;29;20052;-79
2022/08/31 21:59:40;;;;;;;0.32;0.32;;;;;;;16.80;45.91;101021.41;10102448;29;20063;-78
2022/08/31 22:04:44;;;;;;;1.67;0.47;;;;;;;16.64;46.00;101028.50;10031115;29;20614;-78
2022/08/31 22:09:47;;;;;;;1.38;0.80;;;;;;;16.59;45.38;101034.34;10065866;29;20049;-78
2022/08/31 22:14:52;;;;;;;1.75;0.70;;;;;;;16.49;45.73;101031.69;10095354;29;20392;-80
2022/08/31 22:19:55;;;;;;;2.17;0.60;;;;;;;16.52;46.09;101033.25;10075858;29;20057;-77
2022/08/31 22:24:57;;;;;;;2.90;0.93;;;;;;;16.39;45.99;101040.84;10102554;29;21589;-78
2022/08/31 22:30:03;;;;;;;4.60;0.93;;;;;;;16.36;46.39;101039.28;10114674;29;20755;-78
2022/08/31 22:35:06;;;;;;;0.68;0.60;;;;;;;16.20;46.96;101047.13;10097561;29;20053;-77
2022/08/31 22:40:15;;;;;;;2.85;0.70;;;;;;;16.26;46.78;101042.00;10078004;29;20136;-77
2022/08/31 22:45:22;;;;;;;3.00;1.00;;;;;;;16.33;46.99;101034.16;10082638;29;20692;-77
2022/08/31 22:50:26;;;;;;;2.53;0.80;;;;;;;16.18;47.54;101036.44;10078774;29;20048;-79
2022/08/31 22:55:28;;;;;;;1.45;0.70;;;;;;;15.86;47.82;101043.03;10089807;29;20127;-78
2022/08/31 23:00:33;;;;;;;6.80;1.17;;;;;;;15.74;48.58;101040.59;10097207;29;20141;-79
2022/08/31 23:05:40;;;;;;;1.15;0.65;;;;;;;15.69;48.46;101032.91;10066083;29;20090;-77
2022/08/31 23:10:43;;;;;;;3.33;0.90;;;;;;;15.59;48.74;101027.47;10107569;29;20063;-78
2022/08/31 23:15:48;;;;;;;1.95;0.60;;;;;;;15.61;48.67;101032.75;10107747;29;20711;-77
2022/08/31 23:20:51;;;;;;;0.60;0.60;;;;;;;15.57;48.94;101032.16;10104813;29;20154;-78
2022/08/31 23:25:54;;;;;;;2.22;1.08;;;;;;;15.45;49.30;101036.03;10070873;29;20104;-77
2022/08/31 23:30:59;;;;;;;1.27;1.05;;;;;;;15.32;49.52;101029.97;10098248;29;20139;-77
2022/08/31 23:36:04;;;;;;;1.75;0.85;;;;;;;15.27;49.86;101028.53;10097424;29;20056;-78
2022/08/31 23:41:06;;;;;;;2.60;0.93;;;;;;;15.30;49.58;101024.69;10085672;29;20072;-79
2022/08/31 23:46:17;;;;;;;4.85;1.05;;;;;;;15.33;49.72;101027.16;10073276;29;20421;-81
2022/08/31 23:51:22;;;;;;;1.17;0.88;;;;;;;15.20;50.07;101021.97;10068565;29;20076;-81
2022/08/31 23:56:31;;;;;;;1.15;1.00;;;;;;;15.13;50.49;101023.53;10080798;29;20092;-80
